createdAt,value
2022-10-19T00:00:27.241Z,12.30
2022-10-19T00:02:55.559Z,12.30
2022-10-19T00:05:23.161Z,12.33
2022-10-19T00:07:51.667Z,12.47
2022-10-19T00:10:19.062Z,12.58
2022-10-19T00:15:20.596Z,12.35
2022-10-19T00:17:48.781Z,12.41
2022-10-19T00:20:16.298Z,12.29
2022-10-19T00:22:44.905Z,12.37
2022-10-19T00:25:12.208Z,12.45
2022-10-19T00:27:40.928Z,12.49
2022-10-19T00:30:08.723Z,12.40
2022-10-19T00:32:36.248Z,12.27
2022-10-19T00:35:04.239Z,12.13
2022-10-19T00:37:31.765Z,12.13
2022-10-19T00:39:59.270Z,12.15
2022-10-19T00:42:27.071Z,11.82
2022-10-19T00:44:58.438Z,11.90
2022-10-19T00:47:26.915Z,12.05
2022-10-19T00:49:55.249Z,12.01
2022-10-19T00:52:23.372Z,12.05
2022-10-19T00:54:51.878Z,11.93
2022-10-19T00:57:20.088Z,11.87
2022-10-19T00:59:47.816Z,12.00
2022-10-19T01:02:15.263Z,11.99
2022-10-19T01:04:44.709Z,11.64
2022-10-19T01:07:12.144Z,11.67
2022-10-19T01:09:39.577Z,11.78
2022-10-19T01:12:13.023Z,11.62
2022-10-19T01:14:54.152Z,11.58
2022-10-19T01:17:22.456Z,11.82
2022-10-19T01:20:15.214Z,11.78
2022-10-19T01:22:44.675Z,11.68
2022-10-19T01:25:30.427Z,11.70
2022-10-19T01:28:00.728Z,11.75
2022-10-19T01:30:48.514Z,11.87
2022-10-19T01:33:16.561Z,11.79
2022-10-19T01:36:16.664Z,11.74
2022-10-19T01:38:52.735Z,11.74
2022-10-19T01:41:39.302Z,11.69
2022-10-19T01:44:11.904Z,11.82
2022-10-19T01:46:41.783Z,11.52
2022-10-19T01:49:16.423Z,11.30
2022-10-19T01:51:45.970Z,11.45
2022-10-19T01:54:14.574Z,11.36
2022-10-19T01:56:43.329Z,11.36
2022-10-19T01:59:11.028Z,11.38
2022-10-19T02:01:39.924Z,11.14
2022-10-19T02:04:07.259Z,11.31
2022-10-19T02:06:34.740Z,11.35
2022-10-19T02:09:02.107Z,11.19
2022-10-19T02:11:29.867Z,11.15
2022-10-19T02:13:58.880Z,11.06
2022-10-19T02:16:28.036Z,11.12
2022-10-19T02:18:56.449Z,11.09
2022-10-19T02:21:23.911Z,11.16
2022-10-19T02:23:54.056Z,10.97
2022-10-19T02:26:21.808Z,11.11
2022-10-19T02:28:49.180Z,11.34
2022-10-19T02:31:16.768Z,11.13
2022-10-19T02:33:44.167Z,11.24
2022-10-19T02:36:11.538Z,11.16
2022-10-19T02:38:39.003Z,11.12
2022-10-19T02:41:06.404Z,11.08
2022-10-19T02:43:34.636Z,10.99
2022-10-19T02:46:03.257Z,11.06
2022-10-19T02:48:31.882Z,11.14
2022-10-19T02:50:59.268Z,10.99
2022-10-19T02:53:26.598Z,10.97
2022-10-19T02:55:54.202Z,11.12
2022-10-19T02:58:21.569Z,11.12
2022-10-19T03:00:49.018Z,11.21
2022-10-19T03:03:16.611Z,11.15
2022-10-19T03:05:44.040Z,11.21
2022-10-19T03:08:11.323Z,11.12
2022-10-19T03:10:38.656Z,11.12
2022-10-19T03:13:06.021Z,10.94
2022-10-19T03:15:33.661Z,10.97
2022-10-19T03:18:05.140Z,11.05
2022-10-19T03:20:32.776Z,11.13
2022-10-19T03:23:00.151Z,11.13
2022-10-19T03:25:27.853Z,11.00
2022-10-19T03:27:55.498Z,11.00
2022-10-19T03:30:23.100Z,11.05
2022-10-19T03:32:50.804Z,11.06
2022-10-19T03:35:18.197Z,10.91
2022-10-19T03:37:45.743Z,10.87
2022-10-19T03:40:13.084Z,10.76
2022-10-19T03:42:41.206Z,10.74
2022-10-19T03:45:08.732Z,10.80
2022-10-19T03:47:37.281Z,10.72
2022-10-19T03:50:06.328Z,10.64
2022-10-19T03:52:33.873Z,10.47
2022-10-19T03:55:01.215Z,10.62
2022-10-19T03:57:28.819Z,10.58
2022-10-19T03:59:56.659Z,10.61
2022-10-19T04:02:23.989Z,10.54
2022-10-19T04:04:51.321Z,10.55
2022-10-19T04:07:19.074Z,10.49
2022-10-19T04:09:46.562Z,10.62
2022-10-19T04:12:14.401Z,10.69
2022-10-19T04:14:56.771Z,10.70
2022-10-19T04:17:27.662Z,10.62
2022-10-19T04:19:55.411Z,10.69
2022-10-19T04:22:22.999Z,10.35
2022-10-19T04:24:51.192Z,10.05
2022-10-19T04:27:18.642Z,10.08
2022-10-19T04:29:47.294Z,10.04
2022-10-19T04:32:14.725Z,9.83
2022-10-19T04:34:42.118Z,9.85
2022-10-19T04:37:46.951Z,9.93
2022-10-19T04:48:31.767Z,9.68
2022-10-19T04:50:59.194Z,9.72
2022-10-19T04:53:26.774Z,10.07
2022-10-19T04:55:54.475Z,10.26
2022-10-19T04:58:21.962Z,10.44
2022-10-19T05:00:50.766Z,10.67
2022-10-19T15:33:28.576Z,16.17
2022-10-19T15:36:04.410Z,16.02
2022-10-19T15:38:33.448Z,15.96
2022-10-19T15:41:01.559Z,15.80
2022-10-19T15:43:53.348Z,16.14
2022-10-19T15:46:33.565Z,16.07
2022-10-19T15:49:04.420Z,16.14
2022-10-19T15:51:36.043Z,16.12
2022-10-19T15:54:07.037Z,16.21
2022-10-19T15:56:36.774Z,15.81
2022-10-19T15:59:05.609Z,15.62
2022-10-19T16:01:33.457Z,15.93
2022-10-19T16:04:02.264Z,15.78
2022-10-19T16:06:31.690Z,15.63
2022-10-19T16:08:59.264Z,15.79
2022-10-19T16:11:28.339Z,15.48
2022-10-19T16:13:55.816Z,15.36
2022-10-19T16:16:24.349Z,14.99
2022-10-19T16:18:51.897Z,15.04
2022-10-19T16:21:20.028Z,15.15
2022-10-19T16:23:47.675Z,15.18
2022-10-19T16:26:15.678Z,14.99
2022-10-19T16:28:43.134Z,14.84
2022-10-19T16:31:13.323Z,14.58
2022-10-19T16:33:41.025Z,14.54
2022-10-19T16:36:08.613Z,14.28
2022-10-19T16:38:37.211Z,14.34
2022-10-19T16:41:05.835Z,14.43
2022-10-19T16:43:33.898Z,14.13
2022-10-19T16:46:01.671Z,14.12
2022-10-19T16:48:30.151Z,14.16
2022-10-19T16:51:07.056Z,14.15
2022-10-19T16:53:34.949Z,13.98
2022-10-19T16:56:05.924Z,14.05
2022-10-19T16:58:33.598Z,13.99
2022-10-19T17:01:08.819Z,14.05
2022-10-19T17:03:37.035Z,13.82
2022-10-19T17:06:07.560Z,13.74
2022-10-19T17:08:56.695Z,13.79
2022-10-19T17:11:28.388Z,13.61
2022-10-19T17:13:58.283Z,13.48
2022-10-19T17:16:26.030Z,13.61
2022-10-19T17:18:56.612Z,13.60
2022-10-19T17:21:25.602Z,13.51
2022-10-19T17:23:56.980Z,13.26
2022-10-19T17:26:28.046Z,13.34
2022-10-19T17:28:56.796Z,13.37
2022-10-19T17:31:24.384Z,13.31
2022-10-19T17:33:51.847Z,13.18
2022-10-19T17:36:20.209Z,13.11
2022-10-19T17:38:47.750Z,13.17
2022-10-19T17:41:16.245Z,13.05
2022-10-19T17:43:44.167Z,13.08
2022-10-19T17:46:12.208Z,13.08
2022-10-19T17:48:39.708Z,13.07
2022-10-19T17:51:07.990Z,13.12
2022-10-19T17:53:35.583Z,13.02
2022-10-19T17:56:03.691Z,13.04
2022-10-19T17:58:32.594Z,12.93
2022-10-19T18:01:00.690Z,13.00
2022-10-19T18:03:28.522Z,13.03
2022-10-19T18:06:11.165Z,12.99
2022-10-19T18:08:40.738Z,13.05
2022-10-19T18:11:08.433Z,12.72
2022-10-19T18:16:12.360Z,12.59
2022-10-19T18:18:40.526Z,12.67
2022-10-19T18:21:10.438Z,12.52
2022-10-19T18:23:39.204Z,12.57
2022-10-19T18:26:07.804Z,12.31
2022-10-19T18:28:35.641Z,12.48
2022-10-19T18:31:07.280Z,12.69
2022-10-19T18:33:35.526Z,12.48
2022-10-19T18:36:02.963Z,12.77
2022-10-19T18:38:30.523Z,12.70
2022-10-19T18:41:05.031Z,12.65
2022-10-19T18:43:32.669Z,12.50
2022-10-19T18:46:00.917Z,12.14
2022-10-19T18:48:28.994Z,12.12
2022-10-19T18:50:57.943Z,12.22
2022-10-19T18:53:26.160Z,12.55
2022-10-19T18:55:57.280Z,12.23
2022-10-19T18:58:25.516Z,12.50
2022-10-19T19:01:26.976Z,12.35
2022-10-19T19:03:58.826Z,12.42
2022-10-19T19:06:26.844Z,12.35
2022-10-19T19:08:54.437Z,12.19
2022-10-19T19:11:26.089Z,12.28
2022-10-19T19:13:54.135Z,12.19
2022-10-19T19:16:21.450Z,12.34
2022-10-19T19:18:49.360Z,12.59
2022-10-19T19:21:27.130Z,12.63
2022-10-19T19:23:54.703Z,12.64
2022-10-19T19:26:26.581Z,12.51
2022-10-19T19:28:54.208Z,12.52
2022-10-19T19:31:21.680Z,12.30
2022-10-19T19:33:49.029Z,12.29
2022-10-19T19:36:17.197Z,12.60
2022-10-19T19:38:44.717Z,12.33
2022-10-19T19:41:13.282Z,12.54
2022-10-19T19:43:40.648Z,12.42
2022-10-19T19:46:12.648Z,12.48
2022-10-19T19:48:41.255Z,12.55
2022-10-19T19:51:12.233Z,12.37
2022-10-19T19:53:39.771Z,12.24
2022-10-19T19:56:07.451Z,12.26
2022-10-19T19:58:35.288Z,12.31
2022-10-19T20:01:12.693Z,12.51
2022-10-19T20:03:41.049Z,12.71
2022-10-19T20:06:09.120Z,12.66
2022-10-19T20:08:37.856Z,12.63
2022-10-19T20:11:09.087Z,12.34
2022-10-19T20:13:36.975Z,12.27
2022-10-19T20:16:12.659Z,12.23
2022-10-19T20:18:44.626Z,12.46
2022-10-19T20:21:13.745Z,12.58
2022-10-19T20:23:44.076Z,12.37
2022-10-19T20:26:15.274Z,12.44
2022-10-19T20:28:42.803Z,12.31
2022-10-19T20:31:10.484Z,12.36
2022-10-19T20:33:38.375Z,12.42
2022-10-19T20:36:08.684Z,12.52
2022-10-19T20:38:37.357Z,12.60
2022-10-19T20:41:07.810Z,12.60
2022-10-19T20:43:36.686Z,12.73
2022-10-19T20:46:06.513Z,12.36
2022-10-19T20:48:34.133Z,12.63
2022-10-19T20:51:08.571Z,12.50
2022-10-19T20:53:37.834Z,12.53
2022-10-19T20:56:06.059Z,12.70
2022-10-19T20:58:33.767Z,12.46
2022-10-19T21:01:14.183Z,12.60
2022-10-19T21:03:45.409Z,12.52
2022-10-19T21:06:13.061Z,12.59
2022-10-19T21:08:40.374Z,12.57
2022-10-19T21:11:11.795Z,12.44
2022-10-19T21:13:39.184Z,12.42
2022-10-19T21:16:17.485Z,12.47
2022-10-19T21:18:45.163Z,12.35
2022-10-19T21:21:19.162Z,12.54
2022-10-19T21:23:47.025Z,12.47
2022-10-19T21:26:14.556Z,12.45
2022-10-19T21:28:46.106Z,12.43
2022-10-19T21:31:13.546Z,12.30
2022-10-19T21:33:42.121Z,12.38
2022-10-19T21:36:09.777Z,12.42
2022-10-19T21:38:39.041Z,12.09
2022-10-19T21:41:07.539Z,12.19
2022-10-19T21:43:34.877Z,12.53
2022-10-19T21:46:02.972Z,12.58
2022-10-19T21:48:30.370Z,12.33
2022-10-19T21:50:57.765Z,12.25
2022-10-19T21:53:25.129Z,12.08
2022-10-19T21:55:52.997Z,11.98
2022-10-19T21:58:23.062Z,12.21
2022-10-19T22:00:50.395Z,12.40
2022-10-19T22:03:18.542Z,12.44
2022-10-19T22:05:51.964Z,12.21
2022-10-19T22:08:19.442Z,12.38
2022-10-19T22:10:46.803Z,12.51
2022-10-19T22:13:14.179Z,12.26
2022-10-19T22:15:41.898Z,12.09
2022-10-19T22:18:13.052Z,11.97
2022-10-19T22:20:40.447Z,12.03
2022-10-19T22:23:08.169Z,12.36
2022-10-19T22:25:35.554Z,12.30
2022-10-19T22:28:02.914Z,12.09
2022-10-19T22:30:30.551Z,11.86
2022-10-19T22:32:57.850Z,12.01
2022-10-19T22:35:25.168Z,11.88
2022-10-19T22:37:52.562Z,12.16
2022-10-19T22:40:20.230Z,11.96
2022-10-19T22:42:47.516Z,12.00
2022-10-19T22:45:14.908Z,11.92
2022-10-19T22:47:42.604Z,11.90
2022-10-19T22:50:11.965Z,11.98
2022-10-19T22:52:39.433Z,11.91
2022-10-19T22:55:07.072Z,12.02
2022-10-19T22:57:34.524Z,11.99
2022-10-19T23:00:01.866Z,11.93
2022-10-19T23:02:29.536Z,11.89
2022-10-19T23:04:58.747Z,12.15
2022-10-19T23:07:26.092Z,11.91
2022-10-19T23:09:53.432Z,11.93
2022-10-19T23:12:21.026Z,11.74
2022-10-19T23:14:49.374Z,11.73
2022-10-19T23:17:18.788Z,11.74
2022-10-19T23:19:46.355Z,11.58
2022-10-19T23:22:13.675Z,11.79
2022-10-19T23:24:40.996Z,11.60
2022-10-19T23:27:08.404Z,11.66
2022-10-19T23:29:35.973Z,11.59
2022-10-19T23:32:03.246Z,11.42
2022-10-19T23:34:31.192Z,11.81
2022-10-19T23:36:58.519Z,11.79
2022-10-19T23:39:27.270Z,11.40
2022-10-19T23:41:54.777Z,11.31
2022-10-19T23:44:22.186Z,11.39
2022-10-19T23:46:49.611Z,11.41
2022-10-19T23:49:16.939Z,11.42
2022-10-19T23:51:44.862Z,11.56
2022-10-19T23:54:12.407Z,11.36
2022-10-19T23:56:39.771Z,11.45
2022-10-19T23:59:09.757Z,11.48
